Forside
METAR-TAF:

METAR-TAF

Lufthavne :

Iowa County Airport

Mineral Point, Wisconsin, USA

Breddekreds: 42-53-07N, længdekreds: 090-13-55W, højde: 359 m

Aktuelle vejr

Denne rapport blev lavet for 17 minutter siden, kl. 19:55 UTC
Vind 7 kt fra syd
Temperatur 4°C
Fugtighed 60%
Tryk 1018 hPa
Sigt: 16.1 km
skyfri

METAR: KMRJ 221955Z AUTO 18007KT 10SM CLR 04/M03 A3006 RMK AO2

Tid: 14:12 (20:12 UTC)


TAF: fraværende

Vejrobservationer og prognoser fra mere end 4000 lufthavne (METAR og TAF).

De gule og røde prikker repræsenterer de meteorologiske stationer.

Flyt musen over at se navnet på stationen.

Så klik over at se vejr observationer og prognoser.

At skifte det kort: Klik på de grønne knapper med et sort kors for at zoome ind; på den grønne knap med en bindestreg for at zoome ud; eller på de grønne pile for tilstødende kort.


METAR-TAF: